sensor_id;sensor_type;location;lat;lon;timestamp;P1;durP1;ratioP1;P2;durP2;ratioP2
46216;SDS011;47258;59.424;13.482;2023-06-05T00:00:00;0.10;;;0.10;;
46216;SDS011;47258;59.424;13.482;2023-06-05T00:02:30;1.63;;;0.50;;
46216;SDS011;47258;59.424;13.482;2023-06-05T00:07:28;0.63;;;0.35;;
46216;SDS011;47258;59.424;13.482;2023-06-05T00:09:56;0.90;;;0.20;;
46216;SDS011;47258;59.424;13.482;2023-06-05T00:12:24;0.88;;;0.20;;
46216;SDS011;47258;59.424;13.482;2023-06-05T00:14:53;10.80;;;0.77;;
46216;SDS011;47258;59.424;13.482;2023-06-05T00:17:23;10.48;;;0.50;;
46216;SDS011;47258;59.424;13.482;2023-06-05T00:19:51;18.80;;;0.80;;
46216;SDS011;47258;59.424;13.482;2023-06-05T00:22:19;11.50;;;0.38;;
46216;SDS011;47258;59.424;13.482;2023-06-05T00:24:48;1.67;;;0.30;;
46216;SDS011;47258;59.424;13.482;2023-06-05T00:27:15;5.20;;;0.40;;
46216;SDS011;47258;59.424;13.482;2023-06-05T00:29:44;5.47;;;0.15;;
46216;SDS011;47258;59.424;13.482;2023-06-05T00:32:11;8.52;;;0.65;;
46216;SDS011;47258;59.424;13.482;2023-06-05T00:34:39;1.58;;;0.40;;
46216;SDS011;47258;59.424;13.482;2023-06-05T00:37:06;4.57;;;0.40;;
46216;SDS011;47258;59.424;13.482;2023-06-05T00:39:34;5.15;;;0.20;;
46216;SDS011;47258;59.424;13.482;2023-06-05T00:42:03;0.47;;;0.30;;
46216;SDS011;47258;59.424;13.482;2023-06-05T00:44:30;4.53;;;0.68;;
46216;SDS011;47258;59.424;13.482;2023-06-05T00:46:58;1.55;;;0.20;;
46216;SDS011;47258;59.424;13.482;2023-06-05T00:49:26;0.50;;;0.30;;
46216;SDS011;47258;59.424;13.482;2023-06-05T00:51:53;1.05;;;0.30;;
46216;SDS011;47258;59.424;13.482;2023-06-05T00:54:22;0.30;;;0.20;;
46216;SDS011;47258;59.424;13.482;2023-06-05T00:56:50;0.10;;;0.10;;
46216;SDS011;47258;59.424;13.482;2023-06-05T00:59:21;2.08;;;0.30;;
46216;SDS011;47258;59.424;13.482;2023-06-05T01:01:49;0.05;;;0.00;;
46216;SDS011;47258;59.424;13.482;2023-06-05T01:04:17;0.22;;;0.10;;
46216;SDS011;47258;59.424;13.482;2023-06-05T01:06:45;0.20;;;0.10;;
46216;SDS011;47258;59.424;13.482;2023-06-05T01:09:14;0.03;;;0.00;;
46216;SDS011;47258;59.424;13.482;2023-06-05T01:11:43;0.20;;;0.20;;
46216;SDS011;47258;59.424;13.482;2023-06-05T01:14:18;1.85;;;0.25;;
46216;SDS011;47258;59.424;13.482;2023-06-05T01:16:49;0.63;;;0.10;;
46216;SDS011;47258;59.424;13.482;2023-06-05T01:19:19;2.20;;;0.38;;
46216;SDS011;47258;59.424;13.482;2023-06-05T01:21:49;5.82;;;0.20;;
46216;SDS011;47258;59.424;13.482;2023-06-05T01:24:19;1.13;;;0.50;;
46216;SDS011;47258;59.424;13.482;2023-06-05T01:26:57;0.22;;;0.10;;
46216;SDS011;47258;59.424;13.482;2023-06-05T01:29:34;0.10;;;0.10;;
46216;SDS011;47258;59.424;13.482;2023-06-05T01:32:15;0.52;;;0.00;;
46216;SDS011;47258;59.424;13.482;2023-06-05T01:34:50;2.90;;;0.20;;
46216;SDS011;47258;59.424;13.482;2023-06-05T01:37:20;1.17;;;0.10;;
46216;SDS011;47258;59.424;13.482;2023-06-05T01:39:52;0.20;;;0.10;;
46216;SDS011;47258;59.424;13.482;2023-06-05T01:42:22;0.10;;;0.10;;
46216;SDS011;47258;59.424;13.482;2023-06-05T01:44:51;0.10;;;0.10;;
46216;SDS011;47258;59.424;13.482;2023-06-05T01:47:19;2.40;;;0.10;;
46216;SDS011;47258;59.424;13.482;2023-06-05T01:49:48;0.10;;;0.10;;
46216;SDS011;47258;59.424;13.482;2023-06-05T01:52:15;1.35;;;0.20;;
46216;SDS011;47258;59.424;13.482;2023-06-05T01:54:43;0.13;;;0.13;;
46216;SDS011;47258;59.424;13.482;2023-06-05T01:57:15;0.00;;;0.00;;
46216;SDS011;47258;59.424;13.482;2023-06-05T01:59:42;0.08;;;0.03;;
46216;SDS011;47258;59.424;13.482;2023-06-05T02:02:10;0.10;;;0.10;;
46216;SDS011;47258;59.424;13.482;2023-06-05T02:04:39;2.15;;;0.10;;
46216;SDS011;47258;59.424;13.482;2023-06-05T02:07:13;0.22;;;0.10;;
46216;SDS011;47258;59.424;13.482;2023-06-05T02:09:40;0.15;;;0.13;;
46216;SDS011;47258;59.424;13.482;2023-06-05T02:12:08;2.17;;;0.10;;
46216;SDS011;47258;59.424;13.482;2023-06-05T02:14:41;2.17;;;0.10;;
46216;SDS011;47258;59.424;13.482;2023-06-05T02:17:09;0.22;;;0.20;;
46216;SDS011;47258;59.424;13.482;2023-06-05T02:19:38;0.10;;;0.10;;
46216;SDS011;47258;59.424;13.482;2023-06-05T02:22:06;0.20;;;0.00;;
46216;SDS011;47258;59.424;13.482;2023-06-05T02:24:33;5.78;;;0.28;;
46216;SDS011;47258;59.424;13.482;2023-06-05T02:27:03;3.00;;;0.40;;
46216;SDS011;47258;59.424;13.482;2023-06-05T02:29:33;7.03;;;0.47;;
46216;SDS011;47258;59.424;13.482;2023-06-05T02:32:04;3.92;;;0.40;;
46216;SDS011;47258;59.424;13.482;2023-06-05T02:34:32;0.77;;;0.40;;
46216;SDS011;47258;59.424;13.482;2023-06-05T02:37:00;0.55;;;0.10;;
46216;SDS011;47258;59.424;13.482;2023-06-05T02:39:31;0.20;;;0.15;;
46216;SDS011;47258;59.424;13.482;2023-06-05T02:41:58;1.95;;;0.13;;
46216;SDS011;47258;59.424;13.482;2023-06-05T02:44:26;3.00;;;0.40;;
46216;SDS011;47258;59.424;13.482;2023-06-05T02:46:54;0.47;;;0.20;;
46216;SDS011;47258;59.424;13.482;2023-06-05T02:49:24;0.10;;;0.10;;
46216;SDS011;47258;59.424;13.482;2023-06-05T02:51:51;3.53;;;0.10;;
46216;SDS011;47258;59.424;13.482;2023-06-05T02:54:19;1.90;;;0.03;;
46216;SDS011;47258;59.424;13.482;2023-06-05T02:56:47;0.10;;;0.10;;
46216;SDS011;47258;59.424;13.482;2023-06-05T02:59:14;0.20;;;0.20;;
46216;SDS011;47258;59.424;13.482;2023-06-05T03:01:43;0.10;;;0.10;;
46216;SDS011;47258;59.424;13.482;2023-06-05T03:04:12;0.00;;;0.00;;
46216;SDS011;47258;59.424;13.482;2023-06-05T03:06:47;0.38;;;0.13;;
46216;SDS011;47258;59.424;13.482;2023-06-05T03:11:43;0.20;;;0.20;;
46216;SDS011;47258;59.424;13.482;2023-06-05T03:14:14;0.15;;;0.15;;
46216;SDS011;47258;59.424;13.482;2023-06-05T03:16:41;0.20;;;0.20;;
46216;SDS011;47258;59.424;13.482;2023-06-05T03:19:10;1.95;;;0.10;;
46216;SDS011;47258;59.424;13.482;2023-06-05T03:21:37;0.10;;;0.10;;
46216;SDS011;47258;59.424;13.482;2023-06-05T03:24:09;0.20;;;0.20;;
46216;SDS011;47258;59.424;13.482;2023-06-05T03:26:40;1.27;;;0.10;;
46216;SDS011;47258;59.424;13.482;2023-06-05T03:29:09;0.13;;;0.13;;
46216;SDS011;47258;59.424;13.482;2023-06-05T03:31:39;0.10;;;0.10;;
46216;SDS011;47258;59.424;13.482;2023-06-05T03:34:08;0.10;;;0.10;;
46216;SDS011;47258;59.424;13.482;2023-06-05T03:36:35;0.20;;;0.20;;
46216;SDS011;47258;59.424;13.482;2023-06-05T03:39:04;0.10;;;0.10;;
46216;SDS011;47258;59.424;13.482;2023-06-05T03:41:35;0.30;;;0.30;;
46216;SDS011;47258;59.424;13.482;2023-06-05T03:44:02;0.95;;;0.32;;
46216;SDS011;47258;59.424;13.482;2023-06-05T03:46:30;0.55;;;0.10;;
46216;SDS011;47258;59.424;13.482;2023-06-05T03:48:57;0.98;;;0.20;;
46216;SDS011;47258;59.424;13.482;2023-06-05T03:51:26;0.47;;;0.10;;
46216;SDS011;47258;59.424;13.482;2023-06-05T03:53:55;0.38;;;0.38;;
46216;SDS011;47258;59.424;13.482;2023-06-05T03:56:23;0.00;;;0.00;;
46216;SDS011;47258;59.424;13.482;2023-06-05T03:58:55;2.47;;;0.50;;
46216;SDS011;47258;59.424;13.482;2023-06-05T04:03:50;0.10;;;0.10;;
46216;SDS011;47258;59.424;13.482;2023-06-05T04:06:17;0.90;;;0.10;;
46216;SDS011;47258;59.424;13.482;2023-06-05T04:08:45;0.03;;;0.03;;
46216;SDS011;47258;59.424;13.482;2023-06-05T04:11:12;0.03;;;0.03;;
46216;SDS011;47258;59.424;13.482;2023-06-05T04:13:40;0.10;;;0.10;;
46216;SDS011;47258;59.424;13.482;2023-06-05T04:16:09;0.15;;;0.15;;
46216;SDS011;47258;59.424;13.482;2023-06-05T04:18:36;0.32;;;0.10;;
46216;SDS011;47258;59.424;13.482;2023-06-05T04:21:04;1.58;;;0.85;;
46216;SDS011;47258;59.424;13.482;2023-06-05T04:23:32;0.10;;;0.10;;
46216;SDS011;47258;59.424;13.482;2023-06-05T04:25:59;1.27;;;0.10;;
46216;SDS011;47258;59.424;13.482;2023-06-05T04:28:28;0.52;;;0.15;;
46216;SDS011;47258;59.424;13.482;2023-06-05T04:30:57;0.20;;;0.10;;
46216;SDS011;47258;59.424;13.482;2023-06-05T04:33:27;0.20;;;0.20;;
46216;SDS011;47258;59.424;13.482;2023-06-05T04:35:54;0.00;;;0.00;;
46216;SDS011;47258;59.424;13.482;2023-06-05T04:38:22;0.08;;;0.00;;
46216;SDS011;47258;59.424;13.482;2023-06-05T04:40:53;27.83;;;0.50;;
46216;SDS011;47258;59.424;13.482;2023-06-05T04:43:20;8.68;;;0.57;;
46216;SDS011;47258;59.424;13.482;2023-06-05T04:45:49;14.40;;;0.80;;
46216;SDS011;47258;59.424;13.482;2023-06-05T04:48:16;11.85;;;0.43;;
46216;SDS011;47258;59.424;13.482;2023-06-05T04:50:45;14.23;;;0.77;;
46216;SDS011;47258;59.424;13.482;2023-06-05T04:53:13;12.35;;;0.55;;
46216;SDS011;47258;59.424;13.482;2023-06-05T04:55:42;5.80;;;0.60;;
46216;SDS011;47258;59.424;13.482;2023-06-05T04:58:10;3.95;;;0.32;;
46216;SDS011;47258;59.424;13.482;2023-06-05T05:00:38;2.33;;;0.38;;
46216;SDS011;47258;59.424;13.482;2023-06-05T05:03:05;4.97;;;0.57;;
46216;SDS011;47258;59.424;13.482;2023-06-05T05:05:33;4.80;;;0.30;;
46216;SDS011;47258;59.424;13.482;2023-06-05T05:08:02;0.57;;;0.20;;
46216;SDS011;47258;59.424;13.482;2023-06-05T05:10:30;0.47;;;0.10;;
46216;SDS011;47258;59.424;13.482;2023-06-05T05:12:58;1.15;;;0.17;;
46216;SDS011;47258;59.424;13.482;2023-06-05T05:15:26;0.75;;;0.10;;
46216;SDS011;47258;59.424;13.482;2023-06-05T05:17:55;1.10;;;0.20;;
46216;SDS011;47258;59.424;13.482;2023-06-05T05:20:23;0.17;;;0.05;;
46216;SDS011;47258;59.424;13.482;2023-06-05T05:22:53;3.75;;;0.13;;
46216;SDS011;47258;59.424;13.482;2023-06-05T05:25:22;1.73;;;0.30;;
46216;SDS011;47258;59.424;13.482;2023-06-05T05:27:50;4.63;;;0.10;;
46216;SDS011;47258;59.424;13.482;2023-06-05T05:30:20;2.30;;;0.40;;
46216;SDS011;47258;59.424;13.482;2023-06-05T05:32:49;0.28;;;0.28;;
46216;SDS011;47258;59.424;13.482;2023-06-05T05:35:17;0.45;;;0.10;;
46216;SDS011;47258;59.424;13.482;2023-06-05T05:37:44;0.80;;;0.68;;
46216;SDS011;47258;59.424;13.482;2023-06-05T05:40:12;1.15;;;0.30;;
46216;SDS011;47258;59.424;13.482;2023-06-05T05:42:42;4.53;;;0.73;;
46216;SDS011;47258;59.424;13.482;2023-06-05T05:45:09;1.50;;;0.30;;
46216;SDS011;47258;59.424;13.482;2023-06-05T05:47:37;3.00;;;0.55;;
46216;SDS011;47258;59.424;13.482;2023-06-05T05:50:05;8.43;;;0.40;;
46216;SDS011;47258;59.424;13.482;2023-06-05T05:52:33;0.75;;;0.22;;
46216;SDS011;47258;59.424;13.482;2023-06-05T05:55:00;4.35;;;0.63;;
46216;SDS011;47258;59.424;13.482;2023-06-05T05:57:30;2.53;;;0.13;;
46216;SDS011;47258;59.424;13.482;2023-06-05T05:59:58;0.68;;;0.25;;
46216;SDS011;47258;59.424;13.482;2023-06-05T06:02:26;0.38;;;0.20;;
46216;SDS011;47258;59.424;13.482;2023-06-05T06:04:55;1.75;;;0.20;;
46216;SDS011;47258;59.424;13.482;2023-06-05T06:07:23;0.28;;;0.10;;
46216;SDS011;47258;59.424;13.482;2023-06-05T06:09:50;6.50;;;0.77;;
46216;SDS011;47258;59.424;13.482;2023-06-05T06:12:18;0.03;;;0.03;;
46216;SDS011;47258;59.424;13.482;2023-06-05T06:14:46;14.38;;;0.40;;
46216;SDS011;47258;59.424;13.482;2023-06-05T06:19:43;0.17;;;0.17;;
46216;SDS011;47258;59.424;13.482;2023-06-05T06:22:10;9.48;;;0.43;;
46216;SDS011;47258;59.424;13.482;2023-06-05T06:24:38;1.00;;;0.30;;
46216;SDS011;47258;59.424;13.482;2023-06-05T06:27:06;0.52;;;0.30;;
46216;SDS011;47258;59.424;13.482;2023-06-05T06:29:34;1.25;;;0.20;;
46216;SDS011;47258;59.424;13.482;2023-06-05T06:32:02;0.10;;;0.10;;
46216;SDS011;47258;59.424;13.482;2023-06-05T06:34:31;7.78;;;0.20;;
46216;SDS011;47258;59.424;13.482;2023-06-05T06:37:00;0.13;;;0.13;;
46216;SDS011;47258;59.424;13.482;2023-06-05T06:39:28;4.80;;;0.63;;
46216;SDS011;47258;59.424;13.482;2023-06-05T06:41:56;3.88;;;0.65;;
46216;SDS011;47258;59.424;13.482;2023-06-05T06:44:24;5.32;;;0.47;;
46216;SDS011;47258;59.424;13.482;2023-06-05T06:49:20;1.92;;;0.45;;
46216;SDS011;47258;59.424;13.482;2023-06-05T06:51:49;4.30;;;0.40;;
46216;SDS011;47258;59.424;13.482;2023-06-05T06:54:16;0.20;;;0.20;;
46216;SDS011;47258;59.424;13.482;2023-06-05T06:56:44;1.67;;;0.30;;
46216;SDS011;47258;59.424;13.482;2023-06-05T06:59:11;2.45;;;1.08;;
46216;SDS011;47258;59.424;13.482;2023-06-05T07:01:41;1.42;;;0.60;;
46216;SDS011;47258;59.424;13.482;2023-06-05T07:04:11;2.05;;;0.70;;
46216;SDS011;47258;59.424;13.482;2023-06-05T07:06:42;3.33;;;0.70;;
46216;SDS011;47258;59.424;13.482;2023-06-05T07:09:11;1.55;;;0.52;;
46216;SDS011;47258;59.424;13.482;2023-06-05T07:11:39;0.90;;;0.60;;
46216;SDS011;47258;59.424;13.482;2023-06-05T07:14:07;5.13;;;0.65;;
46216;SDS011;47258;59.424;13.482;2023-06-05T07:16:34;1.25;;;0.73;;
46216;SDS011;47258;59.424;13.482;2023-06-05T07:19:02;2.33;;;0.98;;
46216;SDS011;47258;59.424;13.482;2023-06-05T07:21:29;2.72;;;0.68;;
46216;SDS011;47258;59.424;13.482;2023-06-05T07:24:00;4.07;;;0.80;;
46216;SDS011;47258;59.424;13.482;2023-06-05T07:26:30;7.28;;;1.13;;
46216;SDS011;47258;59.424;13.482;2023-06-05T07:28:57;0.90;;;0.90;;
46216;SDS011;47258;59.424;13.482;2023-06-05T07:31:25;3.30;;;1.08;;
46216;SDS011;47258;59.424;13.482;2023-06-05T07:33:52;2.75;;;0.80;;
46216;SDS011;47258;59.424;13.482;2023-06-05T07:36:19;2.83;;;0.80;;
46216;SDS011;47258;59.424;13.482;2023-06-05T07:38:47;3.55;;;1.70;;
46216;SDS011;47258;59.424;13.482;2023-06-05T07:41:15;10.40;;;1.42;;
46216;SDS011;47258;59.424;13.482;2023-06-05T07:43:43;11.32;;;1.40;;
46216;SDS011;47258;59.424;13.482;2023-06-05T07:46:11;6.15;;;1.45;;
46216;SDS011;47258;59.424;13.482;2023-06-05T07:48:39;7.33;;;0.90;;
46216;SDS011;47258;59.424;13.482;2023-06-05T07:51:07;1.38;;;1.20;;
46216;SDS011;47258;59.424;13.482;2023-06-05T07:53:35;0.75;;;0.75;;
46216;SDS011;47258;59.424;13.482;2023-06-05T07:56:02;2.53;;;1.00;;
46216;SDS011;47258;59.424;13.482;2023-06-05T07:58:30;2.78;;;1.02;;
46216;SDS011;47258;59.424;13.482;2023-06-05T08:01:01;1.48;;;0.70;;
46216;SDS011;47258;59.424;13.482;2023-06-05T08:03:32;0.75;;;0.70;;
46216;SDS011;47258;59.424;13.482;2023-06-05T08:05:59;3.10;;;1.00;;
46216;SDS011;47258;59.424;13.482;2023-06-05T08:08:28;3.22;;;0.82;;
46216;SDS011;47258;59.424;13.482;2023-06-05T08:10:56;1.85;;;0.82;;
46216;SDS011;47258;59.424;13.482;2023-06-05T08:13:24;3.20;;;1.00;;
46216;SDS011;47258;59.424;13.482;2023-06-05T08:15:52;8.82;;;1.27;;
46216;SDS011;47258;59.424;13.482;2023-06-05T08:18:22;0.57;;;0.57;;
46216;SDS011;47258;59.424;13.482;2023-06-05T08:20:49;8.05;;;1.13;;
46216;SDS011;47258;59.424;13.482;2023-06-05T08:23:17;4.22;;;1.10;;
46216;SDS011;47258;59.424;13.482;2023-06-05T08:25:44;3.63;;;0.73;;
46216;SDS011;47258;59.424;13.482;2023-06-05T08:28:13;4.05;;;1.27;;
46216;SDS011;47258;59.424;13.482;2023-06-05T08:30:41;1.85;;;1.00;;
46216;SDS011;47258;59.424;13.482;2023-06-05T08:33:09;5.47;;;0.90;;
46216;SDS011;47258;59.424;13.482;2023-06-05T08:35:39;2.40;;;0.73;;
46216;SDS011;47258;59.424;13.482;2023-06-05T08:38:08;2.75;;;0.77;;
46216;SDS011;47258;59.424;13.482;2023-06-05T08:40:35;1.70;;;0.88;;
46216;SDS011;47258;59.424;13.482;2023-06-05T08:43:05;0.70;;;0.70;;
46216;SDS011;47258;59.424;13.482;2023-06-05T08:45:33;6.88;;;1.02;;
46216;SDS011;47258;59.424;13.482;2023-06-05T08:48:01;5.75;;;1.20;;
46216;SDS011;47258;59.424;13.482;2023-06-05T08:50:29;11.13;;;1.67;;
46216;SDS011;47258;59.424;13.482;2023-06-05T08:52:58;13.50;;;1.42;;
46216;SDS011;47258;59.424;13.482;2023-06-05T08:55:26;7.35;;;1.25;;
46216;SDS011;47258;59.424;13.482;2023-06-05T08:57:54;1.13;;;1.02;;
46216;SDS011;47258;59.424;13.482;2023-06-05T09:00:21;0.80;;;0.80;;
46216;SDS011;47258;59.424;13.482;2023-06-05T09:02:49;2.03;;;1.13;;
46216;SDS011;47258;59.424;13.482;2023-06-05T09:05:17;3.65;;;0.85;;
46216;SDS011;47258;59.424;13.482;2023-06-05T09:07:44;1.75;;;0.75;;
46216;SDS011;47258;59.424;13.482;2023-06-05T09:10:23;3.97;;;1.20;;
46216;SDS011;47258;59.424;13.482;2023-06-05T09:12:55;2.67;;;1.52;;
46216;SDS011;47258;59.424;13.482;2023-06-05T09:15:24;1.90;;;1.00;;
46216;SDS011;47258;59.424;13.482;2023-06-05T09:18:06;1.08;;;0.80;;
46216;SDS011;47258;59.424;13.482;2023-06-05T09:20:34;1.38;;;0.70;;
46216;SDS011;47258;59.424;13.482;2023-06-05T09:23:03;1.60;;;0.80;;
46216;SDS011;47258;59.424;13.482;2023-06-05T09:25:46;1.65;;;1.27;;
46216;SDS011;47258;59.424;13.482;2023-06-05T09:28:14;2.78;;;0.82;;
46216;SDS011;47258;59.424;13.482;2023-06-05T09:30:57;3.20;;;1.15;;
46216;SDS011;47258;59.424;13.482;2023-06-05T09:33:26;3.75;;;0.90;;
46216;SDS011;47258;59.424;13.482;2023-06-05T09:36:04;1.23;;;1.10;;
46216;SDS011;47258;59.424;13.482;2023-06-05T09:38:33;3.35;;;1.08;;
46216;SDS011;47258;59.424;13.482;2023-06-05T09:41:03;1.65;;;1.48;;
46216;SDS011;47258;59.424;13.482;2023-06-05T09:43:31;2.20;;;1.10;;
46216;SDS011;47258;59.424;13.482;2023-06-05T09:46:08;3.67;;;1.77;;
46216;SDS011;47258;59.424;13.482;2023-06-05T09:48:37;9.45;;;1.67;;
46216;SDS011;47258;59.424;13.482;2023-06-05T09:51:10;3.13;;;1.83;;
46216;SDS011;47258;59.424;13.482;2023-06-05T09:53:41;3.97;;;1.70;;
46216;SDS011;47258;59.424;13.482;2023-06-05T09:56:13;5.13;;;1.65;;
46216;SDS011;47258;59.424;13.482;2023-06-05T09:58:44;2.05;;;1.15;;
46216;SDS011;47258;59.424;13.482;2023-06-05T10:01:13;3.22;;;1.38;;
46216;SDS011;47258;59.424;13.482;2023-06-05T10:03:44;1.77;;;1.30;;
46216;SDS011;47258;59.424;13.482;2023-06-05T10:06:15;3.13;;;1.50;;
46216;SDS011;47258;59.424;13.482;2023-06-05T10:08:48;3.85;;;1.45;;
46216;SDS011;47258;59.424;13.482;2023-06-05T10:11:19;2.53;;;1.30;;
46216;SDS011;47258;59.424;13.482;2023-06-05T10:13:48;5.30;;;1.55;;
46216;SDS011;47258;59.424;13.482;2023-06-05T10:16:17;2.35;;;1.50;;
46216;SDS011;47258;59.424;13.482;2023-06-05T10:18:45;6.72;;;1.50;;
46216;SDS011;47258;59.424;13.482;2023-06-05T10:21:14;2.17;;;1.77;;
46216;SDS011;47258;59.424;13.482;2023-06-05T10:23:43;3.30;;;1.65;;
46216;SDS011;47258;59.424;13.482;2023-06-05T10:26:15;4.55;;;2.30;;
46216;SDS011;47258;59.424;13.482;2023-06-05T10:29:07;5.50;;;1.50;;
46216;SDS011;47258;59.424;13.482;2023-06-05T10:31:48;3.28;;;2.00;;
46216;SDS011;47258;59.424;13.482;2023-06-05T10:34:24;1.85;;;1.75;;
46216;SDS011;47258;59.424;13.482;2023-06-05T10:37:07;2.92;;;1.50;;
46216;SDS011;47258;59.424;13.482;2023-06-05T10:39:54;2.20;;;1.73;;
46216;SDS011;47258;59.424;13.482;2023-06-05T10:42:24;1.90;;;1.60;;
46216;SDS011;47258;59.424;13.482;2023-06-05T10:44:52;6.82;;;1.70;;
46216;SDS011;47258;59.424;13.482;2023-06-05T10:50:20;5.97;;;1.45;;
46216;SDS011;47258;59.424;13.482;2023-06-05T10:52:50;4.78;;;1.75;;
46216;SDS011;47258;59.424;13.482;2023-06-05T10:55:21;1.60;;;1.38;;
46216;SDS011;47258;59.424;13.482;2023-06-05T11:03:57;5.30;;;1.83;;
46216;SDS011;47258;59.424;13.482;2023-06-05T11:06:25;3.55;;;2.20;;
46216;SDS011;47258;59.424;13.482;2023-06-05T11:09:09;2.60;;;2.17;;
46216;SDS011;47258;59.424;13.482;2023-06-05T11:11:56;3.30;;;2.55;;
46216;SDS011;47258;59.424;13.482;2023-06-05T11:14:47;3.08;;;1.85;;
46216;SDS011;47258;59.424;13.482;2023-06-05T11:17:27;3.00;;;2.10;;
46216;SDS011;47258;59.424;13.482;2023-06-05T11:19:56;3.83;;;1.85;;
46216;SDS011;47258;59.424;13.482;2023-06-05T11:22:23;2.22;;;1.65;;
46216;SDS011;47258;59.424;13.482;2023-06-05T11:27:54;4.75;;;2.00;;
46216;SDS011;47258;59.424;13.482;2023-06-05T11:32:54;3.20;;;2.05;;
46216;SDS011;47258;59.424;13.482;2023-06-05T11:35:24;1.90;;;1.80;;
46216;SDS011;47258;59.424;13.482;2023-06-05T11:38:07;4.53;;;1.80;;
46216;SDS011;47258;59.424;13.482;2023-06-05T11:40:35;7.50;;;2.00;;
46216;SDS011;47258;59.424;13.482;2023-06-05T11:43:07;5.32;;;1.80;;
46216;SDS011;47258;59.424;13.482;2023-06-05T11:45:37;2.10;;;1.80;;
46216;SDS011;47258;59.424;13.482;2023-06-05T11:48:06;2.10;;;1.83;;
46216;SDS011;47258;59.424;13.482;2023-06-05T11:50:34;4.82;;;2.53;;
46216;SDS011;47258;59.424;13.482;2023-06-05T11:53:05;9.27;;;2.35;;
46216;SDS011;47258;59.424;13.482;2023-06-05T11:55:33;9.55;;;2.25;;
46216;SDS011;47258;59.424;13.482;2023-06-05T11:58:22;6.72;;;2.22;;
46216;SDS011;47258;59.424;13.482;2023-06-05T12:00:51;4.78;;;2.00;;
46216;SDS011;47258;59.424;13.482;2023-06-05T12:03:31;2.38;;;1.55;;
46216;SDS011;47258;59.424;13.482;2023-06-05T12:06:00;3.63;;;1.80;;
46216;SDS011;47258;59.424;13.482;2023-06-05T12:08:28;2.50;;;1.80;;
46216;SDS011;47258;59.424;13.482;2023-06-05T12:10:58;3.58;;;2.17;;
46216;SDS011;47258;59.424;13.482;2023-06-05T12:13:44;2.65;;;2.10;;
46216;SDS011;47258;59.424;13.482;2023-06-05T12:16:15;2.38;;;1.80;;
46216;SDS011;47258;59.424;13.482;2023-06-05T12:18:42;4.00;;;2.00;;
46216;SDS011;47258;59.424;13.482;2023-06-05T12:21:22;5.18;;;2.00;;
46216;SDS011;47258;59.424;13.482;2023-06-05T12:23:51;1.85;;;1.75;;
46216;SDS011;47258;59.424;13.482;2023-06-05T12:26:18;2.53;;;1.95;;
46216;SDS011;47258;59.424;13.482;2023-06-05T12:28:46;2.42;;;1.38;;
46216;SDS011;47258;59.424;13.482;2023-06-05T12:31:33;3.85;;;2.25;;
46216;SDS011;47258;59.424;13.482;2023-06-05T12:34:05;2.22;;;1.92;;
46216;SDS011;47258;59.424;13.482;2023-06-05T12:36:37;3.13;;;2.00;;
46216;SDS011;47258;59.424;13.482;2023-06-05T12:39:06;2.25;;;1.77;;
46216;SDS011;47258;59.424;13.482;2023-06-05T12:41:36;2.28;;;2.08;;
46216;SDS011;47258;59.424;13.482;2023-06-05T12:44:04;7.43;;;2.60;;
46216;SDS011;47258;59.424;13.482;2023-06-05T12:46:35;3.10;;;2.00;;
46216;SDS011;47258;59.424;13.482;2023-06-05T12:49:03;1.83;;;1.73;;
46216;SDS011;47258;59.424;13.482;2023-06-05T12:51:31;2.43;;;1.73;;
46216;SDS011;47258;59.424;13.482;2023-06-05T12:53:59;1.90;;;1.80;;
46216;SDS011;47258;59.424;13.482;2023-06-05T12:56:26;1.88;;;1.77;;
46216;SDS011;47258;59.424;13.482;2023-06-05T12:58:54;1.95;;;1.38;;
46216;SDS011;47258;59.424;13.482;2023-06-05T13:01:22;2.72;;;2.10;;
46216;SDS011;47258;59.424;13.482;2023-06-05T13:03:52;2.28;;;1.77;;
46216;SDS011;47258;59.424;13.482;2023-06-05T13:06:19;2.58;;;2.10;;
46216;SDS011;47258;59.424;13.482;2023-06-05T13:08:47;3.80;;;2.65;;
46216;SDS011;47258;59.424;13.482;2023-06-05T13:11:14;2.53;;;2.03;;
46216;SDS011;47258;59.424;13.482;2023-06-05T13:13:41;5.40;;;2.15;;
46216;SDS011;47258;59.424;13.482;2023-06-05T13:16:09;3.20;;;1.98;;
46216;SDS011;47258;59.424;13.482;2023-06-05T13:18:37;4.25;;;2.47;;
46216;SDS011;47258;59.424;13.482;2023-06-05T13:21:08;4.88;;;2.45;;
46216;SDS011;47258;59.424;13.482;2023-06-05T13:23:35;3.63;;;2.28;;
46216;SDS011;47258;59.424;13.482;2023-06-05T13:26:02;2.97;;;2.70;;
46216;SDS011;47258;59.424;13.482;2023-06-05T13:28:30;7.63;;;3.75;;
46216;SDS011;47258;59.424;13.482;2023-06-05T13:30:57;8.60;;;3.08;;
46216;SDS011;47258;59.424;13.482;2023-06-05T13:35:54;6.35;;;2.67;;
46216;SDS011;47258;59.424;13.482;2023-06-05T13:38:23;3.03;;;2.72;;
46216;SDS011;47258;59.424;13.482;2023-06-05T13:40:50;9.20;;;3.17;;
46216;SDS011;47258;59.424;13.482;2023-06-05T13:43:18;5.18;;;2.67;;
46216;SDS011;47258;59.424;13.482;2023-06-05T13:45:46;3.10;;;2.60;;
46216;SDS011;47258;59.424;13.482;2023-06-05T13:48:15;5.80;;;2.97;;
46216;SDS011;47258;59.424;13.482;2023-06-05T13:50:43;4.70;;;2.80;;
46216;SDS011;47258;59.424;13.482;2023-06-05T13:53:10;9.95;;;2.92;;
46216;SDS011;47258;59.424;13.482;2023-06-05T13:55:39;5.75;;;3.45;;
46216;SDS011;47258;59.424;13.482;2023-06-05T13:58:07;8.85;;;3.10;;
46216;SDS011;47258;59.424;13.482;2023-06-05T14:00:36;5.05;;;3.30;;
46216;SDS011;47258;59.424;13.482;2023-06-05T14:03:06;4.75;;;3.15;;
46216;SDS011;47258;59.424;13.482;2023-06-05T14:05:35;3.53;;;3.20;;
46216;SDS011;47258;59.424;13.482;2023-06-05T14:08:02;7.95;;;3.45;;
46216;SDS011;47258;59.424;13.482;2023-06-05T14:10:32;4.60;;;3.63;;
46216;SDS011;47258;59.424;13.482;2023-06-05T14:13:05;3.50;;;3.00;;
46216;SDS011;47258;59.424;13.482;2023-06-05T14:15:32;7.30;;;2.92;;
46216;SDS011;47258;59.424;13.482;2023-06-05T14:18:01;6.03;;;3.05;;
46216;SDS011;47258;59.424;13.482;2023-06-05T14:20:30;7.68;;;3.53;;
46216;SDS011;47258;59.424;13.482;2023-06-05T14:22:58;3.22;;;2.90;;
46216;SDS011;47258;59.424;13.482;2023-06-05T14:25:27;2.35;;;2.15;;
46216;SDS011;47258;59.424;13.482;2023-06-05T14:27:58;3.28;;;2.20;;
46216;SDS011;47258;59.424;13.482;2023-06-05T14:30:27;3.08;;;2.10;;
46216;SDS011;47258;59.424;13.482;2023-06-05T14:32:55;9.10;;;2.50;;
46216;SDS011;47258;59.424;13.482;2023-06-05T14:35:22;4.03;;;2.30;;
46216;SDS011;47258;59.424;13.482;2023-06-05T14:37:50;4.25;;;2.50;;
46216;SDS011;47258;59.424;13.482;2023-06-05T14:40:18;2.97;;;2.67;;
46216;SDS011;47258;59.424;13.482;2023-06-05T14:42:45;5.38;;;2.70;;
46216;SDS011;47258;59.424;13.482;2023-06-05T14:45:13;4.05;;;2.92;;
46216;SDS011;47258;59.424;13.482;2023-06-05T14:47:44;3.33;;;2.63;;
46216;SDS011;47258;59.424;13.482;2023-06-05T14:50:16;4.63;;;2.88;;
46216;SDS011;47258;59.424;13.482;2023-06-05T14:52:43;4.80;;;2.90;;
46216;SDS011;47258;59.424;13.482;2023-06-05T14:55:12;7.13;;;3.33;;
46216;SDS011;47258;59.424;13.482;2023-06-05T14:57:39;4.05;;;2.78;;
46216;SDS011;47258;59.424;13.482;2023-06-05T15:00:07;4.03;;;3.03;;
46216;SDS011;47258;59.424;13.482;2023-06-05T15:02:35;4.05;;;2.90;;
46216;SDS011;47258;59.424;13.482;2023-06-05T15:05:04;3.33;;;2.63;;
46216;SDS011;47258;59.424;13.482;2023-06-05T15:07:36;5.65;;;3.40;;
46216;SDS011;47258;59.424;13.482;2023-06-05T15:10:05;6.95;;;2.53;;
46216;SDS011;47258;59.424;13.482;2023-06-05T15:12:33;4.38;;;3.47;;
46216;SDS011;47258;59.424;13.482;2023-06-05T15:15:01;2.65;;;2.45;;